Terminal Aerodrome Forecast
Issued by NWS Wakefield, VA

Home | Current Version | Previous Version | Text Only | Print | Product List | Glossary On
Versions: 1 2 3 4 5 6 7 8 9 10 11 12 13 14 15 16 17 18 19
058
FTUS41 KAKQ 231156 CCA
TAFSBY
TAF COR
KSBY 231156Z 2312/2412 13004KT 6SM BR SCT003 BKN040
      TEMPO 2312/2313 2SM BR BKN003
     FM231300 13005KT P6SM SCT040 BKN250
     FM231900 15011KT P6SM BKN045
     FM240600 17014G22KT 4SM SHRA OVC030=

USA.gov is the U.S. government's official web portal to all federal, state and local government web resources and services.